Time;durP1;ratioP1;P1;durP2;ratioP2;P2;SDS_P1;SDS_P2;PMS_P1;PMS_P2;Temp;Humidity;BMP_temperature;BMP_pressure;BME280_temperature;BME280_humidity;BME280_pressure;Samples;Min_cycle;Max_cycle;Signal;HPM_P1;HPM_P2
2022/11/25 00:02:24;;;;;;;;;7.00;5.00;;;;;20.12;55.07;100864.66;105664;1279;20569;-61
2022/11/25 00:04:51;;;;;;;;;10.50;7.00;;;;;20.11;55.28;100858.88;105671;1294;19455;-61
2022/11/25 00:07:19;;;;;;;;;8.00;4.00;;;;;20.11;55.39;100861.36;105654;1271;20050;-60
2022/11/25 00:09:46;;;;;;;;;6.00;4.50;;;;;20.11;55.14;100859.92;105673;1295;19287;-61
2022/11/25 00:12:14;;;;;;;;;5.00;4.00;;;;;20.10;55.31;100860.95;105686;1285;20791;-60
2022/11/25 00:14:41;;;;;;;;;5.00;4.00;;;;;20.10;55.13;100858.71;105679;1282;21572;-60
2022/11/25 00:17:09;;;;;;;;;8.00;4.00;;;;;20.11;55.26;100857.77;105570;1294;147673;-61
2022/11/25 00:19:36;;;;;;;;;4.50;4.50;;;;;20.11;55.19;100859.73;105665;1280;22046;-60
2022/11/25 00:22:03;;;;;;;;;5.00;4.00;;;;;20.12;54.99;100866.52;105650;1290;20287;-61
2022/11/25 00:24:31;;;;;;;;;5.00;4.50;;;;;20.11;55.05;100867.05;105698;1280;19591;-60
2022/11/25 00:26:58;;;;;;;;;4.00;4.00;;;;;20.09;55.05;100862.98;105709;1279;19334;-60
2022/11/25 00:29:26;;;;;;;;;4.00;4.00;;;;;20.11;55.16;100860.52;105667;1271;32047;-60
2022/11/25 00:31:53;;;;;;;;;4.00;4.00;;;;;20.11;54.99;100861.77;105635;1275;19225;-61
2022/11/25 00:34:21;;;;;;;;;5.00;4.00;;;;;20.11;55.06;100864.86;105674;1272;23833;-58
2022/11/25 00:36:48;;;;;;;;;5.00;4.00;;;;;20.09;54.95;100868.25;105663;1280;20369;-60
2022/11/25 00:39:16;;;;;;;;;4.00;4.00;;;;;20.10;55.08;100869.86;105695;1293;19680;-60
2022/11/25 00:44:39;;;;;;;;;5.00;4.00;;;;;20.10;54.81;100874.01;105614;1289;20343;-60
2022/11/25 00:47:07;;;;;;;;;7.00;7.00;;;;;20.12;54.95;100880.17;105691;1296;20737;-59
2022/11/25 00:49:34;;;;;;;;;6.00;5.00;;;;;20.10;54.97;100878.51;105654;1272;19694;-59
2022/11/25 00:52:02;;;;;;;;;;;;;;;20.10;54.70;100885.09;105664;1281;20194;-61
2022/11/25 00:54:30;;;;;;;;;2.67;2.67;;;;;20.09;54.81;100887.30;105672;1287;19891;-61
2022/11/25 00:56:57;;;;;;;;;;;;;;;20.08;54.95;100888.23;105678;1294;19270;-60
2022/11/25 00:59:25;;;;;;;;;4.00;4.00;;;;;20.09;54.99;100887.33;105714;1279;20076;-60
2022/11/25 01:01:52;;;;;;;;;5.00;5.00;;;;;20.09;54.66;100887.40;105637;1297;19100;-62
2022/11/25 01:04:20;;;;;;;;;2.00;2.00;;;;;20.08;54.90;100885.80;105686;1279;19711;-60
2022/11/25 01:06:47;;;;;;;;;5.00;5.00;;;;;20.08;54.88;100884.17;105673;1301;20714;-61
2022/11/25 01:09:15;;;;;;;;;2.00;2.00;;;;;20.08;54.65;100885.33;105729;1294;19106;-61
2022/11/25 01:11:43;;;;;;;;;4.50;4.00;;;;;20.08;54.88;100881.32;105692;1303;19484;-60
2022/11/25 01:14:10;;;;;;;;;4.00;3.00;;;;;20.07;54.89;100883.39;105665;1279;23576;-61
2022/11/25 01:16:38;;;;;;;;;5.00;5.00;;;;;20.07;54.73;100880.91;105645;1294;19303;-61
2022/11/25 01:19:06;;;;;;;;;4.00;4.00;;;;;20.07;54.87;100881.42;105677;1297;19883;-60
2022/11/25 01:21:33;;;;;;;;;3.00;3.00;;;;;20.06;54.81;100881.29;105709;1288;22843;-60
2022/11/25 01:24:01;;;;;;;;;4.00;4.00;;;;;20.07;54.73;100887.41;105671;1279;19146;-60
2022/11/25 01:26:28;;;;;;;;;7.00;5.00;;;;;20.06;54.62;100891.67;105672;1281;19452;-60
2022/11/25 01:28:56;;;;;;;;;6.00;4.50;;;;;20.06;54.72;100888.94;105712;1287;21871;-61
2022/11/25 01:31:23;;;;;;;;;4.00;4.00;;;;;20.06;54.75;100889.17;105673;1271;19430;-61
2022/11/25 01:33:50;;;;;;;;;7.00;4.00;;;;;20.06;54.71;100889.73;105714;1281;20779;-60
2022/11/25 01:36:18;;;;;;;;;5.00;4.00;;;;;20.07;54.59;100886.48;105672;1300;21509;-60
2022/11/25 01:38:45;;;;;;;;;4.00;4.00;;;;;20.06;54.64;100886.73;105647;1271;19362;-59
2022/11/25 01:41:13;;;;;;;;;4.00;4.00;;;;;20.06;54.63;100883.74;105644;1279;22481;-60
2022/11/25 01:43:40;;;;;;;;;4.00;4.00;;;;;20.06;54.68;100890.06;105677;1279;21767;-60
2022/11/25 01:46:08;;;;;;;;;2.00;2.00;;;;;20.04;54.76;100887.36;105669;1282;19190;-60
2022/11/25 01:48:35;;;;;;;;;5.00;5.00;;;;;20.05;54.62;100893.63;105680;1297;23475;-60
2022/11/25 01:51:02;;;;;;;;;4.00;4.00;;;;;20.06;54.66;100893.09;105644;1302;20412;-60
2022/11/25 01:53:30;;;;;;;;;4.00;4.00;;;;;20.06;54.53;100886.80;105678;1292;19330;-62
2022/11/25 01:55:57;;;;;;;;;7.00;5.00;;;;;20.05;54.57;100887.69;105637;1288;20775;-62
2022/11/25 01:58:25;;;;;;;;;4.00;4.00;;;;;20.04;54.72;100890.80;105630;1280;23397;-59
2022/11/25 02:00:52;;;;;;;;;4.00;4.00;;;;;20.04;54.56;100889.89;105705;1271;23567;-59
2022/11/25 02:03:20;;;;;;;;;4.00;4.00;;;;;20.04;54.44;100888.27;105676;1288;19416;-60
2022/11/25 02:05:47;;;;;;;;;;;;;;;20.06;54.37;100887.03;105651;1272;22298;-60
2022/11/25 02:08:14;;;;;;;;;4.00;4.00;;;;;20.06;54.36;100891.90;105662;1279;24217;-60
2022/11/25 02:10:42;;;;;;;;;2.00;2.00;;;;;20.04;54.64;100891.30;105697;1287;20819;-60
2022/11/25 02:13:09;;;;;;;;;7.00;4.50;;;;;20.04;54.55;100896.20;105631;1295;26991;-60
2022/11/25 02:15:37;;;;;;;;;;;;;;;20.04;54.30;100903.17;105729;1300;19340;-61
2022/11/25 02:18:05;;;;;;;;;;;;;;;20.04;54.42;100908.17;105665;1296;27440;-61
2022/11/25 02:20:33;;;;;;;;;4.00;3.00;;;;;20.04;54.30;100908.08;105690;1279;20389;-60
2022/11/25 02:23:00;;;;;;;;;4.00;3.00;;;;;20.04;54.40;100912.05;105665;1297;19454;-61
2022/11/25 02:25:27;;;;;;;;;4.00;2.00;;;;;20.04;54.36;100913.11;105685;1297;19471;-59
2022/11/25 02:27:55;;;;;;;;;4.00;4.00;;;;;20.04;54.49;100914.15;105652;1295;20136;-60
2022/11/25 02:30:22;;;;;;;;;4.00;4.00;;;;;20.03;54.57;100913.38;105702;1297;23258;-61
2022/11/25 02:32:50;;;;;;;;;4.00;4.00;;;;;20.03;54.31;100914.81;105638;1279;19664;-60
2022/11/25 02:35:17;;;;;;;;;2.00;2.00;;;;;20.03;54.36;100915.55;105636;1271;20373;-60
2022/11/25 02:37:45;;;;;;;;;4.00;2.00;;;;;20.03;54.05;100916.47;105653;1276;19109;-60
2022/11/25 02:40:12;;;;;;;;;4.50;3.00;;;;;20.03;54.28;100914.70;105654;1271;19520;-60
2022/11/25 02:42:40;;;;;;;;;2.00;2.00;;;;;20.02;54.16;100914.61;105680;1288;20080;-60
2022/11/25 02:45:07;;;;;;;;;4.50;4.00;;;;;20.03;54.26;100915.25;105685;1279;19370;-61
2022/11/25 02:47:34;;;;;;;;;4.00;4.00;;;;;20.02;54.34;100912.09;105691;1281;19349;-60
2022/11/25 02:50:02;;;;;;;;;4.00;4.00;;;;;20.02;54.19;100909.84;105630;1292;21813;-60
2022/11/25 02:52:29;;;;;;;;;4.00;4.00;;;;;20.03;54.34;100911.98;105619;1297;19750;-61
2022/11/25 02:54:57;;;;;;;;;5.00;4.00;;;;;20.03;54.28;100915.92;105666;1279;20713;-60
2022/11/25 02:57:24;;;;;;;;;4.00;4.00;;;;;20.02;54.27;100912.98;105681;1282;24733;-60
2022/11/25 02:59:52;;;;;;;;;2.00;2.00;;;;;20.02;54.07;100916.24;105633;1290;19187;-59
2022/11/25 03:02:19;;;;;;;;;4.00;4.00;;;;;20.01;54.13;100909.65;105692;1280;19267;-62
2022/11/25 03:04:47;;;;;;;;;4.00;3.00;;;;;20.00;54.22;100914.00;105673;1279;20094;-61
2022/11/25 03:07:14;;;;;;;;;4.00;4.00;;;;;20.01;53.92;100910.70;105647;1272;19133;-60
2022/11/25 03:09:42;;;;;;;;;4.00;4.00;;;;;20.00;54.24;100916.92;105694;1294;19533;-61
2022/11/25 03:12:19;;;;;;;;;5.00;2.00;;;;;20.00;54.26;100912.40;105583;1279;21411;-60
2022/11/25 03:14:46;;;;;;;;;6.00;5.00;;;;;20.01;54.03;100913.83;105656;1295;19918;-62
2022/11/25 03:17:14;;;;;;;;;4.00;4.00;;;;;20.00;54.11;100910.02;105674;1279;19424;-61
2022/11/25 03:19:41;;;;;;;;;5.00;4.00;;;;;20.01;54.17;100911.38;105663;1279;21950;-61
2022/11/25 03:22:09;;;;;;;;;4.00;4.00;;;;;20.01;54.22;100910.08;105657;1279;23675;-61
2022/11/25 03:24:36;;;;;;;;;4.00;4.00;;;;;20.00;54.00;100908.05;105722;1293;19383;-60
2022/11/25 03:27:04;;;;;;;;;4.00;4.00;;;;;20.00;54.20;100906.45;105626;1272;20558;-61
2022/11/25 03:29:31;;;;;;;;;5.00;4.00;;;;;20.00;53.92;100910.48;105643;1287;19331;-60
2022/11/25 03:31:59;;;;;;;;;4.00;4.00;;;;;19.99;54.11;100911.41;105605;1272;19536;-60
2022/11/25 03:34:26;;;;;;;;;7.00;5.00;;;;;19.99;53.96;100911.44;105628;1272;20361;-60
2022/11/25 03:36:54;;;;;;;;;5.00;4.00;;;;;19.99;54.01;100912.73;105684;1279;19511;-60
2022/11/25 03:39:22;;;;;;;;;5.00;5.00;;;;;19.99;54.09;100912.20;105671;1290;20916;-61
2022/11/25 03:41:49;;;;;;;;;4.00;4.00;;;;;20.00;54.06;100914.27;105636;1279;22922;-60
2022/11/25 03:44:17;;;;;;;;;;;;;;;20.01;54.22;100912.37;105669;1287;19452;-60
2022/11/25 03:46:44;;;;;;;;;4.00;4.00;;;;;20.00;54.00;100915.02;105686;1289;20889;-61
2022/11/25 03:49:12;;;;;;;;;4.50;4.00;;;;;19.98;53.99;100916.98;105655;1279;20109;-61
2022/11/25 03:51:39;;;;;;;;;5.00;5.00;;;;;19.99;53.81;100924.34;105713;1301;23467;-61
2022/11/25 03:54:07;;;;;;;;;4.00;2.00;;;;;19.99;53.93;100925.60;105667;1279;19548;-61
2022/11/25 03:56:34;;;;;;;;;4.00;4.00;;;;;20.00;54.15;100927.52;105661;1297;20279;-60
2022/11/25 03:59:02;;;;;;;;;4.50;4.00;;;;;19.99;54.01;100923.42;105679;1281;23400;-61
2022/11/25 04:01:29;;;;;;;;;5.00;5.00;;;;;19.99;53.91;100929.92;105663;1279;19572;-60
2022/11/25 04:03:56;;;;;;;;;10.00;7.00;;;;;19.99;53.89;100926.14;105607;1281;20417;-61
2022/11/25 04:06:24;;;;;;;;;5.00;5.00;;;;;19.98;53.85;100928.95;105664;1294;21881;-61
2022/11/25 04:08:51;;;;;;;;;5.00;4.00;;;;;19.98;54.05;100925.00;105663;1288;19277;-60
2022/11/25 04:11:19;;;;;;;;;3.00;3.00;;;;;19.98;54.06;100922.26;105652;1295;21652;-61
2022/11/25 04:13:46;;;;;;;;;5.50;4.50;;;;;19.98;53.85;100923.66;105652;1295;23333;-62
2022/11/25 04:16:14;;;;;;;;;7.50;4.50;;;;;19.98;54.04;100927.16;105650;1280;19416;-62
2022/11/25 04:18:41;;;;;;;;;4.00;3.00;;;;;19.98;53.91;100929.53;105695;1297;21798;-60
2022/11/25 04:21:08;;;;;;;;;4.00;4.00;;;;;19.97;54.10;100936.33;105651;1272;23461;-62
2022/11/25 04:23:36;;;;;;;;;;;;;;;19.97;53.99;100938.30;105730;1297;20230;-61
2022/11/25 04:26:03;;;;;;;;;;;;;;;19.97;53.96;100940.10;105642;1271;21475;-60
2022/11/25 04:28:31;;;;;;;;;2.00;2.00;;;;;19.97;54.09;100943.03;105658;1272;23272;-60
2022/11/25 04:30:58;;;;;;;;;5.00;4.00;;;;;19.98;53.92;100945.52;105638;1272;19230;-59
2022/11/25 04:33:26;;;;;;;;;4.00;4.00;;;;;19.97;54.03;100947.04;105688;1295;21878;-60
2022/11/25 04:35:53;;;;;;;;;4.00;4.00;;;;;19.96;54.01;100945.47;105684;1282;19395;-61
2022/11/25 04:38:21;;;;;;;;;4.00;4.00;;;;;19.97;54.01;100951.98;105646;1300;19417;-61
2022/11/25 04:40:48;;;;;;;;;5.00;4.00;;;;;19.97;54.08;100954.80;105675;1297;20082;-60
2022/11/25 04:43:16;;;;;;;;;2.00;2.00;;;;;19.97;54.00;100957.34;105661;1280;19177;-61
2022/11/25 04:45:43;;;;;;;;;5.00;4.00;;;;;19.97;53.91;100958.12;105697;1297;20931;-61
2022/11/25 04:48:11;;;;;;;;;2.00;2.00;;;;;19.96;53.93;100956.86;105642;1295;20100;-60
2022/11/25 04:50:38;;;;;;;;;4.00;4.00;;;;;19.96;53.92;100957.45;105684;1274;21095;-60
2022/11/25 04:53:06;;;;;;;;;4.00;4.00;;;;;19.97;53.85;100959.19;105628;1281;22773;-60
2022/11/25 04:55:33;;;;;;;;;5.00;2.00;;;;;19.97;53.90;100958.81;105637;1280;23055;-60
2022/11/25 04:58:01;;;;;;;;;;;;;;;19.96;53.75;100957.95;105667;1275;19524;-60
2022/11/25 05:00:28;;;;;;;;;5.00;4.00;;;;;19.96;53.84;100959.14;105727;1279;23724;-59
2022/11/25 05:02:56;;;;;;;;;4.00;4.00;;;;;19.96;53.92;100958.73;105669;1288;22229;-60
2022/11/25 05:05:23;;;;;;;;;4.00;4.00;;;;;19.96;53.84;100956.80;105681;1279;19242;-60
2022/11/25 05:07:51;;;;;;;;;4.00;4.00;;;;;19.96;53.82;100957.71;105622;1279;20736;-61
2022/11/25 05:10:18;;;;;;;;;3.00;2.00;;;;;19.96;53.92;100966.21;105662;1296;20257;-60
2022/11/25 05:12:46;;;;;;;;;5.00;4.00;;;;;19.96;53.64;100970.00;105691;1297;19322;-60
2022/11/25 05:15:13;;;;;;;;;5.00;4.00;;;;;19.95;53.70;100969.17;105652;1286;19665;-60
2022/11/25 05:17:41;;;;;;;;;5.00;4.00;;;;;19.95;53.73;100969.73;105666;1279;20579;-60
2022/11/25 05:20:08;;;;;;;;;5.00;5.00;;;;;19.95;53.82;100974.45;105669;1280;20380;-61
2022/11/25 05:22:36;;;;;;;;;4.00;4.00;;;;;19.95;53.56;100975.34;105616;1279;20732;-60
2022/11/25 05:25:05;;;;;;;;;4.00;4.00;;;;;19.94;53.60;100980.00;105683;1294;21892;-61
2022/11/25 05:27:32;;;;;;;;;4.00;4.00;;;;;19.95;53.81;100985.36;105755;1279;19887;-59
2022/11/25 05:30:00;;;;;;;;;4.00;2.00;;;;;19.96;53.64;100984.99;105666;1279;21101;-61
2022/11/25 05:32:28;;;;;;;;;2.00;2.00;;;;;19.95;53.60;100989.48;105631;1297;20159;-63
2022/11/25 05:34:56;;;;;;;;;2.00;2.00;;;;;19.95;53.72;100990.77;105671;1275;21580;-61
2022/11/25 05:37:24;;;;;;;;;5.00;5.00;;;;;19.95;53.61;100986.63;105709;1279;20901;-61
2022/11/25 05:39:51;;;;;;;;;5.00;4.00;;;;;19.95;53.56;100992.73;105706;1297;19927;-61
2022/11/25 05:42:18;;;;;;;;;4.50;4.00;;;;;19.95;53.86;100992.81;105675;1298;22957;-61
2022/11/25 05:44:46;;;;;;;;;1.50;1.50;;;;;19.94;53.63;100989.06;105628;1279;19342;-61
2022/11/25 05:47:13;;;;;;;;;;;;;;;19.94;53.85;100993.23;105661;1276;20327;-61
2022/11/25 05:49:41;;;;;;;;;4.00;4.00;;;;;19.94;53.88;100994.11;105663;1296;19237;-62
2022/11/25 05:52:08;;;;;;;;;6.00;5.00;;;;;19.94;53.63;100994.01;105654;1290;20928;-62
2022/11/25 05:54:36;;;;;;;;;2.00;2.00;;;;;19.94;53.82;100998.66;105716;1297;21575;-63
2022/11/25 05:57:03;;;;;;;;;4.00;4.00;;;;;19.94;53.71;100999.41;105651;1289;21192;-60
2022/11/25 05:59:31;;;;;;;;;5.00;4.00;;;;;19.94;53.65;101001.96;105629;1279;19471;-60
2022/11/25 06:01:58;;;;;;;;;2.00;2.00;;;;;19.94;53.48;101006.29;105640;1288;20172;-60
2022/11/25 06:04:25;;;;;;;;;5.00;5.00;;;;;19.93;53.70;101006.77;105665;1296;19145;-59
2022/11/25 06:06:53;;;;;;;;;5.00;5.00;;;;;19.93;53.64;101009.48;105677;1300;19374;-60
2022/11/25 06:09:20;;;;;;;;;5.00;4.00;;;;;19.93;53.66;101007.55;105686;1296;23435;-60
2022/11/25 06:11:48;;;;;;;;;4.00;4.00;;;;;19.93;53.43;101005.50;105670;1279;19344;-59
2022/11/25 06:14:16;;;;;;;;;5.00;5.00;;;;;19.92;53.56;101006.14;105658;1297;23013;-62
2022/11/25 06:16:43;;;;;;;;;4.00;4.00;;;;;19.94;53.44;101006.35;105656;1271;20086;-61
2022/11/25 06:19:11;;;;;;;;;2.00;2.00;;;;;19.94;53.39;101009.17;105647;1289;19145;-61
2022/11/25 06:21:39;;;;;;;;;5.00;4.00;;;;;19.95;53.72;101007.30;105705;1280;19256;-61
2022/11/25 06:24:06;;;;;;;;;7.00;4.50;;;;;19.96;53.48;101007.84;105556;1279;20054;-62
2022/11/25 06:26:34;;;;;;;;;7.00;5.00;;;;;19.98;53.93;101010.55;105607;1280;19197;-61
2022/11/25 06:29:01;;;;;;;;;20.00;18.00;;;;;20.01;53.90;101009.33;105585;1279;19479;-63
2022/11/25 06:31:28;;;;;;;;;97.00;76.00;;;;;20.06;54.07;101010.46;105550;1281;20155;-61
2022/11/25 06:33:56;;;;;;;;;78.00;61.00;;;;;20.09;54.69;101011.63;105565;1279;21203;-63
2022/11/25 06:36:23;;;;;;;;;58.00;50.00;;;;;20.11;55.01;101012.97;105618;1279;19359;-61
2022/11/25 06:38:51;;;;;;;;;50.00;43.50;;;;;20.09;55.22;101015.40;105639;1271;20243;-61
2022/11/25 06:41:18;;;;;;;;;40.50;39.00;;;;;20.10;55.27;101012.02;105558;1272;21003;-61
2022/11/25 06:43:46;;;;;;;;;36.50;33.50;;;;;20.11;55.10;101011.61;105579;1272;20988;-61
2022/11/25 06:46:13;;;;;;;;;33.00;28.00;;;;;20.10;54.98;101015.51;105588;1279;21563;-62
2022/11/25 06:48:41;;;;;;;;;20.00;18.00;;;;;20.10;54.97;101019.08;105590;1291;22405;-61
2022/11/25 06:51:08;;;;;;;;;20.50;18.00;;;;;20.06;55.16;101022.64;105511;1274;23134;-62
2022/11/25 06:53:36;;;;;;;;;23.00;21.00;;;;;20.03;55.37;101024.45;105600;1285;21710;-62
2022/11/25 06:56:03;;;;;;;;;22.00;20.00;;;;;20.04;55.08;101023.44;105573;1284;19289;-61
2022/11/25 06:58:31;;;;;;;;;20.00;17.00;;;;;20.04;54.94;101021.09;105629;1272;22976;-61
2022/11/25 07:00:58;;;;;;;;;20.00;18.00;;;;;20.02;55.04;101027.00;105668;1296;20217;-62
2022/11/25 07:03:26;;;;;;;;;;;;;;;20.07;55.11;101025.08;105658;1290;23693;-60
2022/11/25 07:05:53;;;;;;;;;17.00;14.00;;;;;20.10;55.11;101024.22;105617;1280;20418;-61
2022/11/25 07:08:23;;;;;;;;;21.00;20.00;;;;;20.10;55.27;101024.90;105611;1280;21549;-61
2022/11/25 07:10:50;;;;;;;;;20.00;18.00;;;;;20.10;54.50;101028.59;105535;1279;24087;-60
2022/11/25 07:13:18;;;;;;;;;20.00;17.00;;;;;20.08;54.03;101026.62;105625;1294;19349;-61
2022/11/25 07:15:45;;;;;;;;;11.00;11.00;;;;;20.07;54.38;101030.30;105715;1301;20091;-60
2022/11/25 07:18:12;;;;;;;;;18.00;13.00;;;;;20.06;54.53;101026.46;105613;1272;19158;-61
2022/11/25 07:20:40;;;;;;;;;15.00;14.00;;;;;20.05;54.57;101023.89;105689;1279;22150;-61
2022/11/25 07:23:07;;;;;;;;;14.00;11.00;;;;;20.03;54.77;101026.19;105616;1272;21523;-61
2022/11/25 07:25:35;;;;;;;;;13.00;12.00;;;;;20.03;54.62;101026.05;105626;1282;19446;-61
2022/11/25 07:28:02;;;;;;;;;12.50;10.50;;;;;20.01;54.66;101022.94;105657;1287;21641;-62
2022/11/25 07:30:30;;;;;;;;;15.00;11.00;;;;;20.01;54.86;101026.57;105688;1272;20282;-62
2022/11/25 07:32:57;;;;;;;;;10.50;10.00;;;;;20.01;54.84;101029.29;105654;1295;23636;-62
2022/11/25 07:35:25;;;;;;;;;10.00;10.00;;;;;20.00;54.71;101030.83;105643;1288;19648;-62
2022/11/25 07:37:52;;;;;;;;;12.00;10.50;;;;;20.00;54.91;101038.34;105648;1289;20050;-62
2022/11/25 07:40:20;;;;;;;;;8.00;8.00;;;;;20.00;54.73;101042.86;105691;1295;19225;-62
2022/11/25 07:42:47;;;;;;;;;10.00;7.00;;;;;19.99;54.70;101046.38;105725;1291;19325;-62
2022/11/25 07:45:15;;;;;;;;;11.00;9.67;;;;;19.98;54.62;101052.27;105623;1295;25026;-62
2022/11/25 07:47:43;;;;;;;;;7.00;7.00;;;;;19.98;54.81;101057.44;105672;1296;19265;-62
2022/11/25 07:50:11;;;;;;;;;13.00;11.00;;;;;19.98;54.70;101053.36;105605;1289;20852;-60
2022/11/25 07:52:39;;;;;;;;;9.50;8.00;;;;;19.99;54.70;101057.63;105613;1279;23147;-60
2022/11/25 07:55:06;;;;;;;;;10.50;9.00;;;;;19.99;54.49;101056.77;105655;1287;19181;-60
2022/11/25 07:57:34;;;;;;;;;10.00;8.00;;;;;19.99;54.54;101063.23;105678;1297;22093;-61
2022/11/25 08:00:01;;;;;;;;;14.00;12.00;;;;;19.99;54.35;101063.98;105650;1274;20353;-61
2022/11/25 08:02:28;;;;;;;;;10.00;8.00;;;;;19.99;54.47;101065.81;105637;1289;24116;-62
2022/11/25 08:04:56;;;;;;;;;14.00;11.50;;;;;20.00;54.40;101070.23;105620;1270;19318;-64
2022/11/25 08:07:23;;;;;;;;;15.00;11.00;;;;;19.99;54.16;101069.29;105633;1280;21475;-61
2022/11/25 08:09:51;;;;;;;;;10.50;10.50;;;;;19.99;54.25;101074.86;105713;1294;20147;-61
2022/11/25 08:12:19;;;;;;;;;12.00;11.00;;;;;19.99;54.02;101078.34;105710;1278;21035;-61
2022/11/25 08:14:46;;;;;;;;;17.00;12.00;;;;;19.99;54.08;101078.67;105634;1279;21620;-61
2022/11/25 08:17:14;;;;;;;;;15.00;15.00;;;;;19.99;53.93;101080.34;105599;1278;23226;-62
2022/11/25 08:19:41;;;;;;;;;12.00;11.00;;;;;19.99;53.97;101085.06;105656;1279;19664;-63
2022/11/25 08:22:09;;;;;;;;;13.00;11.00;;;;;19.99;54.12;101084.52;105591;1272;23488;-60
2022/11/25 08:24:36;;;;;;;;;;;;;;;19.98;54.18;101085.51;105651;1287;23895;-61
2022/11/25 08:27:04;;;;;;;;;14.67;12.00;;;;;19.99;54.03;101085.23;105631;1288;19016;-62
2022/11/25 08:29:31;;;;;;;;;14.00;12.00;;;;;19.98;53.91;101088.54;105634;1279;21818;-61
2022/11/25 08:31:59;;;;;;;;;14.00;14.00;;;;;19.97;53.97;101094.67;105602;1286;22495;-62
2022/11/25 08:34:26;;;;;;;;;12.00;11.00;;;;;19.98;53.90;101092.06;105643;1281;22225;-61
2022/11/25 08:36:54;;;;;;;;;14.50;12.50;;;;;19.98;53.84;101096.05;105697;1297;21526;-63
2022/11/25 08:39:21;;;;;;;;;14.00;12.00;;;;;19.97;53.85;101095.89;105663;1271;20087;-62
2022/11/25 08:41:49;;;;;;;;;12.00;11.00;;;;;19.96;53.96;101097.28;105617;1290;19491;-62
2022/11/25 08:44:16;;;;;;;;;16.00;14.00;;;;;19.97;53.79;101093.92;105642;1271;20642;-61
2022/11/25 08:46:44;;;;;;;;;13.00;11.50;;;;;19.97;53.76;101092.52;105644;1279;19156;-62
2022/11/25 08:49:11;;;;;;;;;12.00;11.00;;;;;19.97;53.74;101099.36;105653;1296;19518;-61
2022/11/25 08:51:38;;;;;;;;;11.00;10.00;;;;;19.97;53.69;101100.28;105706;1297;20151;-62
2022/11/25 08:54:06;;;;;;;;;12.00;12.00;;;;;19.97;53.81;101102.77;105592;1278;19721;-62
2022/11/25 08:56:33;;;;;;;;;18.00;14.00;;;;;19.97;53.67;101105.02;105632;1280;19341;-61
2022/11/25 08:59:01;;;;;;;;;11.50;11.00;;;;;19.96;53.74;101105.24;105663;1287;22733;-62
2022/11/25 09:01:28;;;;;;;;;16.00;12.00;;;;;19.97;53.83;101111.20;105605;1288;19221;-62
2022/11/25 09:03:56;;;;;;;;;18.00;12.00;;;;;19.97;53.48;101111.02;105690;1296;19403;-63
2022/11/25 09:06:24;;;;;;;;;14.00;12.00;;;;;19.96;53.63;101106.37;105634;1288;20378;-62
2022/11/25 09:08:51;;;;;;;;;14.00;11.50;;;;;19.96;53.55;101108.92;105635;1279;19411;-62
2022/11/25 09:11:19;;;;;;;;;10.00;10.00;;;;;19.96;53.48;101107.83;105651;1288;19898;-63
2022/11/25 09:13:46;;;;;;;;;11.00;11.00;;;;;19.96;53.33;101108.91;105714;1287;23007;-60
2022/11/25 09:16:14;;;;;;;;;12.00;11.00;;;;;19.96;53.38;101107.15;105626;1287;20231;-62
2022/11/25 09:18:41;;;;;;;;;15.00;12.00;;;;;19.96;53.38;101103.52;105674;1288;23554;-62
2022/11/25 09:21:10;;;;;;;;;14.00;12.00;;;;;19.96;53.36;101105.44;105633;1295;21450;-63
2022/11/25 09:23:38;;;;;;;;;14.50;13.00;;;;;19.96;53.57;101105.48;105686;1286;19323;-62
2022/11/25 09:26:05;;;;;;;;;12.00;12.00;;;;;19.96;53.47;101108.79;105620;1300;19358;-61
2022/11/25 09:28:33;;;;;;;;;11.00;10.00;;;;;19.96;53.37;101106.71;105635;1298;22319;-61
2022/11/25 09:31:01;;;;;;;;;13.50;12.00;;;;;19.96;53.56;101105.27;105608;1289;20091;-62
2022/11/25 09:33:29;;;;;;;;;14.00;10.00;;;;;19.95;53.34;101106.44;105706;1281;21160;-62
2022/11/25 09:35:56;;;;;;;;;11.50;11.00;;;;;19.96;53.25;101106.95;105626;1279;21527;-62
2022/11/25 09:38:24;;;;;;;;;12.00;12.00;;;;;19.96;53.34;101109.12;105624;1296;19109;-62
2022/11/25 09:40:51;;;;;;;;;11.00;11.00;;;;;19.95;53.28;101110.98;105595;1297;23430;-63
2022/11/25 09:48:49;;;;;;;;;14.00;12.00;;;;;19.94;53.40;101109.33;105666;1297;21023;-62
2022/11/25 09:51:16;;;;;;;;;22.00;14.00;;;;;19.94;53.29;101107.66;105648;1279;21553;-62
2022/11/25 09:53:43;;;;;;;;;11.00;10.00;;;;;19.94;53.21;101107.48;105644;1279;19524;-62
2022/11/25 09:56:11;;;;;;;;;11.00;10.00;;;;;19.95;53.06;101113.06;105640;1289;19841;-62
2022/11/25 09:58:38;;;;;;;;;12.50;12.50;;;;;19.95;53.28;101115.79;105642;1288;22578;-62
2022/11/25 10:01:06;;;;;;;;;12.00;11.00;;;;;19.95;53.36;101116.88;105656;1295;20134;-62
2022/11/25 10:03:34;;;;;;;;;12.00;10.00;;;;;19.94;53.02;101115.45;105683;1297;21109;-62
2022/11/25 10:06:02;;;;;;;;;13.00;11.00;;;;;19.94;53.19;101114.73;105651;1278;20095;-61
2022/11/25 10:08:29;;;;;;;;;14.00;12.00;;;;;19.93;53.01;101114.29;105637;1275;19833;-62
2022/11/25 10:10:57;;;;;;;;;14.00;11.00;;;;;19.93;53.14;101116.16;105651;1272;21024;-62
2022/11/25 10:13:25;;;;;;;;;15.00;12.00;;;;;19.93;53.12;101113.43;105637;1295;20501;-62
2022/11/25 10:15:52;;;;;;;;;14.00;14.00;;;;;19.94;52.94;101117.70;105683;1297;21941;-63
2022/11/25 10:18:20;;;;;;;;;11.00;11.00;;;;;19.94;53.19;101118.44;105610;1275;22187;-63
2022/11/25 10:20:47;;;;;;;;;15.00;12.00;;;;;19.94;53.18;101117.66;105639;1295;23924;-62
2022/11/25 10:23:14;;;;;;;;;;;;;;;19.93;52.93;101113.98;105623;1297;20088;-62
2022/11/25 10:25:42;;;;;;;;;16.00;14.50;;;;;19.93;52.97;101115.45;105677;1297;19158;-62
2022/11/25 10:28:10;;;;;;;;;15.00;12.00;;;;;19.93;52.97;101113.98;105751;1279;20310;-61
2022/11/25 10:30:37;;;;;;;;;11.00;10.00;;;;;19.93;52.98;101117.93;105632;1288;19344;-60
2022/11/25 10:33:05;;;;;;;;;15.67;12.33;;;;;19.93;52.83;101115.74;105643;1279;20870;-61
2022/11/25 10:35:32;;;;;;;;;15.00;14.00;;;;;19.93;53.01;101116.67;105678;1279;21693;-60
2022/11/25 10:38:00;;;;;;;;;15.50;14.00;;;;;19.93;52.97;101117.59;105624;1279;21751;-62
2022/11/25 10:40:28;;;;;;;;;14.50;11.50;;;;;19.93;52.90;101122.52;105671;1279;19332;-61
2022/11/25 10:42:55;;;;;;;;;14.00;11.00;;;;;19.93;52.81;101126.27;105667;1297;20592;-61
2022/11/25 10:45:22;;;;;;;;;11.00;11.00;;;;;19.93;52.83;101127.95;105634;1267;20373;-60
2022/11/25 10:47:50;;;;;;;;;13.00;11.50;;;;;19.94;52.83;101126.43;105641;1295;23283;-61
2022/11/25 10:50:17;;;;;;;;;11.00;10.00;;;;;19.93;52.84;101128.84;105628;1279;21690;-61
2022/11/25 10:52:45;;;;;;;;;12.00;11.00;;;;;19.93;52.79;101124.09;105659;1280;19179;-62
2022/11/25 10:55:12;;;;;;;;;11.50;10.50;;;;;19.93;52.86;101125.92;105610;1297;19633;-62
2022/11/25 10:57:40;;;;;;;;;14.00;14.00;;;;;19.94;52.71;101123.71;105644;1298;20212;-62
2022/11/25 11:00:07;;;;;;;;;13.00;11.00;;;;;19.93;52.58;101124.31;105638;1297;19118;-62
2022/11/25 11:02:35;;;;;;;;;14.00;13.00;;;;;19.94;52.58;101126.39;105661;1279;19577;-62
2022/11/25 11:05:02;;;;;;;;;15.00;14.00;;;;;19.93;52.62;101125.27;105621;1288;20380;-61
2022/11/25 11:07:31;;;;;;;;;11.00;11.00;;;;;19.93;52.78;101125.58;105645;1279;19423;-60
2022/11/25 11:09:59;;;;;;;;;12.00;11.00;;;;;19.93;52.61;101124.29;105690;1289;24267;-60
2022/11/25 11:12:26;;;;;;;;;14.00;14.00;;;;;19.93;52.54;101120.55;105654;1278;23544;-61
2022/11/25 11:14:54;;;;;;;;;14.00;11.00;;;;;19.93;52.82;101123.05;105637;1282;19041;-61
2022/11/25 11:17:21;;;;;;;;;15.00;14.00;;;;;19.93;52.65;101121.98;105611;1295;20941;-61
2022/11/25 11:19:49;;;;;;;;;12.50;12.00;;;;;19.92;52.69;101125.84;105615;1303;23100;-62
2022/11/25 11:22:16;;;;;;;;;14.00;12.00;;;;;19.93;52.74;101130.17;105638;1274;20293;-62
2022/11/25 11:24:44;;;;;;;;;14.00;14.00;;;;;19.94;52.65;101132.25;105667;1296;19642;-62